Time;durP1;ratioP1;P1;durP2;ratioP2;P2;SDS_P1;SDS_P2;PMS_P1;PMS_P2;Temp;Humidity;BMP_temperature;BMP_pressure;BME280_temperature;BME280_humidity;BME280_pressure;Samples;Min_cycle;Max_cycle;Signal;HPM_P1;HPM_P2
2022/07/20 00:01:26;;;;;;;;;26.50;23.25;;;;;28.01;43.21;101145.00;6279369;22;45259;-79
2022/07/20 00:03:52;;;;;;;;;22.50;18.50;;;;;28.00;42.84;101160.38;6279324;22;45353;-79
2022/07/20 00:06:17;;;;;;;;;24.25;22.75;;;;;27.97;43.09;101165.16;6251983;22;45537;-80
2022/07/20 00:11:27;;;;;;;;;20.00;19.00;;;;;27.93;42.96;101168.06;6279448;22;45261;-80
2022/07/20 00:14:00;;;;;;;;;18.25;18.25;;;;;27.85;42.94;101174.97;6279437;22;45251;-79
2022/07/20 00:16:27;;;;;;;;;25.75;22.25;;;;;27.85;43.02;101174.97;6251679;22;45259;-79
2022/07/20 00:18:53;;;;;;;;;26.25;22.25;;;;;27.75;43.46;101190.97;6251302;22;45430;-79
2022/07/20 00:21:19;;;;;;;;;25.25;23.50;;;;;27.74;43.75;101227.09;6278930;22;45342;-79
2022/07/20 00:23:45;;;;;;;;;28.25;24.50;;;;;27.67;44.08;101232.06;6250991;22;45361;-79
2022/07/20 00:26:11;;;;;;;;;26.75;24.25;;;;;27.60;44.13;101265.06;6251812;22;45165;-79
2022/07/20 00:28:37;;;;;;;;;25.25;20.75;;;;;27.53;44.55;101278.09;6279517;22;45256;-79
2022/07/20 00:31:03;;;;;;;;;22.75;21.75;;;;;27.46;44.80;101290.31;6251674;22;47157;-80
2022/07/20 00:33:29;;;;;;;;;21.00;20.25;;;;;27.40;45.58;101323.16;6278570;22;45221;-80
2022/07/20 00:35:54;;;;;;;;;26.75;24.75;;;;;27.33;45.62;101346.19;6252208;22;45397;-80
2022/07/20 00:38:20;;;;;;;;;28.50;25.25;;;;;27.23;46.64;101343.19;6279309;22;45351;-79
2022/07/20 00:40:45;;;;;;;;;22.75;20.50;;;;;27.16;46.51;101345.41;6251291;22;47966;-79
2022/07/20 00:43:11;;;;;;;;;25.25;24.25;;;;;27.11;47.42;101338.56;6279279;22;45186;-79
2022/07/20 00:45:36;;;;;;;;;28.75;26.50;;;;;27.02;47.51;101321.94;6279361;22;45790;-79
2022/07/20 00:48:05;;;;;;;;;25.00;23.50;;;;;27.04;47.41;101300.22;6251077;22;45351;-79
2022/07/20 00:50:30;;;;;;;;;27.50;26.50;;;;;27.00;47.78;101285.19;6250919;22;47699;-79
2022/07/20 00:52:56;;;;;;;;;26.00;23.75;;;;;27.01;48.35;101259.88;6251137;22;45383;-79
2022/07/20 00:55:22;;;;;;;;;28.75;25.75;;;;;27.00;49.25;101228.41;6279012;22;45251;-79
2022/07/20 00:57:47;;;;;;;;;30.75;29.00;;;;;26.93;50.01;101213.56;6278888;22;45506;-79
2022/07/20 01:00:13;;;;;;;;;33.25;30.75;;;;;26.86;50.66;101210.38;6279222;22;45607;-79
2022/07/20 01:02:39;;;;;;;;;46.75;38.75;;;;;26.82;51.41;101204.31;6279066;22;45217;-78
2022/07/20 01:05:16;;;;;;;;;41.00;35.00;;;;;26.77;52.32;101214.53;6251697;22;45181;-79
2022/07/20 01:07:44;;;;;;;;;48.50;39.75;;;;;26.69;52.16;101203.38;6278866;22;45397;-78
2022/07/20 01:10:10;;;;;;;;;43.50;39.25;;;;;26.66;53.10;101198.16;6251070;22;45520;-79
2022/07/20 01:12:37;;;;;;;;;50.00;40.00;;;;;26.58;53.01;101176.19;6278941;22;45242;-79
2022/07/20 01:15:04;;;;;;;;;55.25;44.00;;;;;26.54;53.19;101166.53;6279001;22;45241;-78
2022/07/20 01:17:30;;;;;;;;;46.75;39.75;;;;;26.52;53.22;101154.97;6278542;22;45406;-78
2022/07/20 01:19:55;;;;;;;;;50.75;43.50;;;;;26.47;53.56;101154.38;6279030;22;45138;-78
2022/07/20 01:22:21;;;;;;;;;51.00;42.50;;;;;26.43;53.82;101144.72;6279038;22;45252;-78
2022/07/20 01:24:46;;;;;;;;;50.50;41.50;;;;;26.38;54.03;101142.28;6279335;22;45393;-78
2022/07/20 01:27:12;;;;;;;;;49.25;41.75;;;;;26.37;54.39;101165.72;6279279;22;45256;-78
2022/07/20 01:29:39;;;;;;;;;50.50;42.25;;;;;26.36;53.78;101184.75;6250851;22;46495;-78
2022/07/20 01:32:10;;;;;;;;;54.75;44.00;;;;;26.35;54.43;101183.00;6278793;22;45366;-78
2022/07/20 01:34:38;;;;;;;;;50.50;42.25;;;;;26.32;54.24;101192.16;6279224;22;45256;-78
2022/07/20 01:37:03;;;;;;;;;52.50;44.00;;;;;26.31;54.30;101194.97;6250869;22;45466;-78
2022/07/20 01:39:29;;;;;;;;;51.50;42.50;;;;;26.31;54.17;101171.53;6278572;22;45343;-78
2022/07/20 01:41:54;;;;;;;;;53.75;44.75;;;;;26.27;54.06;101159.19;6278976;22;45286;-77
2022/07/20 01:44:23;;;;;;;;;53.25;45.00;;;;;26.18;53.77;101162.47;6278389;22;45275;-78
2022/07/20 01:46:50;;;;;;;;;50.75;42.75;;;;;26.13;54.36;101176.25;6251126;22;46068;-77
2022/07/20 01:49:17;;;;;;;;;58.50;47.75;;;;;26.09;54.36;101171.13;6278704;22;45438;-78
2022/07/20 01:51:43;;;;;;;;;53.50;45.50;;;;;26.05;54.53;101180.38;6278310;22;45362;-78
2022/07/20 01:54:08;;;;;;;;;56.00;43.50;;;;;26.00;54.76;101159.06;6250687;22;45331;-78
2022/07/20 01:56:34;;;;;;;;;58.00;47.00;;;;;26.04;53.91;101173.25;6278552;22;45456;-78
2022/07/20 01:58:59;;;;;;;;;58.25;47.25;;;;;26.03;54.69;101185.84;6279057;22;46104;-77
2022/07/20 02:01:25;;;;;;;;;57.00;46.25;;;;;26.03;54.14;101198.50;6278660;22;45355;-78
2022/07/20 02:03:50;;;;;;;;;54.00;43.25;;;;;26.03;54.14;101220.06;6251172;22;45629;-78
2022/07/20 02:06:16;;;;;;;;;53.75;45.50;;;;;26.05;53.72;101258.66;6275013;22;45311;-78
2022/07/20 02:08:41;;;;;;;;;53.75;43.75;;;;;26.02;53.74;101299.31;6276297;22;45358;-78
2022/07/20 02:11:06;;;;;;;;;55.00;45.25;;;;;25.98;53.68;101305.84;6251091;22;45252;-77
2022/07/20 02:13:36;;;;;;;;;57.25;47.00;;;;;25.95;54.00;101312.28;6279655;22;45173;-78
2022/07/20 02:16:14;;;;;;;;;54.50;45.50;;;;;25.89;54.01;101280.28;6252862;22;45631;-78
2022/07/20 02:18:57;;;;;;;;;56.50;45.50;;;;;25.88;54.67;101236.25;6280920;22;45435;-78
2022/07/20 02:21:23;;;;;;;;;57.50;45.75;;;;;25.86;54.87;101256.19;6278804;22;45343;-78
2022/07/20 02:23:50;;;;;;;;;54.25;46.75;;;;;25.83;54.95;101281.47;6278573;22;45401;-78
2022/07/20 02:26:18;;;;;;;;;53.50;43.75;;;;;25.86;55.02;101289.41;6278381;22;45564;-78
2022/07/20 02:28:44;;;;;;;;;55.50;46.00;;;;;25.81;54.75;101296.88;6278079;22;45167;-78
2022/07/20 02:31:10;;;;;;;;;55.00;44.25;;;;;25.79;55.07;101292.53;6250509;22;45205;-78
2022/07/20 02:33:35;;;;;;;;;56.25;45.25;;;;;25.77;55.27;101272.88;6250324;22;45231;-78
2022/07/20 02:36:01;;;;;;;;;53.25;44.75;;;;;25.68;55.70;101285.94;6250835;22;45512;-78
2022/07/20 02:38:26;;;;;;;;;54.50;45.25;;;;;25.60;55.29;101296.31;6278105;22;45921;-78
2022/07/20 02:40:52;;;;;;;;;60.00;47.00;;;;;25.52;55.39;101309.34;6278369;22;45299;-78
2022/07/20 02:43:18;;;;;;;;;55.75;46.50;;;;;25.46;55.58;101301.63;6250746;22;45368;-78
2022/07/20 02:45:43;;;;;;;;;57.25;46.00;;;;;25.45;55.92;101289.13;6250507;22;45876;-78
2022/07/20 02:48:09;;;;;;;;;63.25;49.25;;;;;25.42;55.69;101294.66;6278232;22;45428;-78
2022/07/20 02:50:38;;;;;;;;;58.00;48.25;;;;;25.40;55.41;101316.34;6278266;22;45229;-78
2022/07/20 02:53:05;;;;;;;;;57.75;46.25;;;;;25.42;55.68;101321.63;6250314;22;45251;-78
2022/07/20 02:55:31;;;;;;;;;54.50;44.75;;;;;25.43;56.40;101329.63;6250087;22;45534;-78
2022/07/20 02:57:57;;;;;;;;;59.50;48.50;;;;;25.37;55.94;101332.69;6251350;22;46717;-78
2022/07/20 03:00:22;;;;;;;;;58.25;44.50;;;;;25.37;56.39;101343.47;6279473;22;45212;-78
2022/07/20 03:02:49;;;;;;;;;54.50;46.25;;;;;25.36;56.78;101362.41;6250678;22;45347;-78
2022/07/20 03:05:15;;;;;;;;;59.75;49.25;;;;;25.32;56.82;101379.72;6251620;22;45461;-77
2022/07/20 03:07:40;;;;;;;;;58.50;46.75;;;;;25.30;57.09;101395.97;6279756;22;46532;-78
2022/07/20 03:10:09;;;;;;;;;61.50;48.00;;;;;25.28;57.28;101401.44;6251680;22;46015;-77
2022/07/20 03:12:34;;;;;;;;;58.00;48.00;;;;;25.26;57.12;101399.78;6279180;22;45192;-77
2022/07/20 03:15:00;;;;;;;;;63.25;50.50;;;;;25.26;57.50;101410.56;6251607;22;45532;-77
2022/07/20 03:17:26;;;;;;;;;62.75;50.75;;;;;25.24;57.24;101409.78;6251600;22;46770;-80
2022/07/20 03:19:51;;;;;;;;;55.25;46.75;;;;;25.25;57.04;101423.16;6279609;22;45204;-77
2022/07/20 03:22:18;;;;;;;;;55.75;46.50;;;;;25.29;56.64;101435.53;6251830;22;45371;-77
2022/07/20 03:24:44;;;;;;;;;56.00;46.00;;;;;25.26;56.49;101424.94;6279172;22;45188;-77
2022/07/20 03:27:09;;;;;;;;;37.50;30.00;;;;;25.24;56.83;101404.41;6279247;22;45402;-77
2022/07/20 03:29:35;;;;;;;;;60.00;47.50;;;;;25.20;57.49;101402.81;6251314;22;45277;-77
2022/07/20 03:32:01;;;;;;;;;57.00;45.75;;;;;25.14;57.35;101395.91;6278829;22;45340;-79
2022/07/20 03:34:26;;;;;;;;;58.75;47.25;;;;;25.13;57.38;101395.97;6251922;22;45906;-77
2022/07/20 03:36:54;;;;;;;;;54.75;45.25;;;;;25.06;57.81;101398.16;6251167;22;48177;-77
2022/07/20 03:39:20;;;;;;;;;60.50;49.00;;;;;25.07;57.87;101390.00;6278820;22;45240;-77
2022/07/20 03:41:45;;;;;;;;;54.25;45.00;;;;;25.13;58.06;101402.25;6279293;22;45161;-79
2022/07/20 03:44:11;;;;;;;;;57.25;44.25;;;;;25.08;57.91;101407.88;6279505;22;45188;-79
2022/07/20 03:46:36;;;;;;;;;54.25;44.00;;;;;25.14;58.16;101416.59;6251574;22;47086;-79
2022/07/20 03:49:02;;;;;;;;;58.25;47.25;;;;;25.15;58.22;101403.06;6251716;22;45295;-79
2022/07/20 03:51:27;;;;;;;;;63.50;49.25;;;;;25.20;58.17;101408.22;6251435;22;45380;-79
2022/07/20 03:53:53;;;;;;;;;59.25;47.50;;;;;25.20;58.61;101427.06;6251732;22;45446;-79
2022/07/20 03:56:18;;;;;;;;;60.25;47.25;;;;;25.24;58.42;101447.53;6280002;22;45494;-77
2022/07/20 03:58:44;;;;;;;;;59.75;46.75;;;;;25.21;58.80;101453.97;6251992;22;44774;-79
2022/07/20 04:01:12;;;;;;;;;55.25;45.00;;;;;25.14;58.29;101451.63;6251819;22;45358;-79
2022/07/20 04:03:37;;;;;;;;;53.75;45.00;;;;;25.04;59.34;101453.94;6251630;22;45511;-79
2022/07/20 04:06:03;;;;;;;;;51.25;43.00;;;;;25.00;59.46;101468.53;6279148;22;46196;-79
2022/07/20 04:08:28;;;;;;;;;52.75;43.25;;;;;24.95;58.96;101476.84;6251219;22;45160;-79
2022/07/20 04:10:54;;;;;;;;;52.25;41.25;;;;;24.87;58.41;101452.13;6279372;22;45339;-79
2022/07/20 04:13:19;;;;;;;;;42.50;36.50;;;;;24.85;58.09;101460.28;6279220;22;45519;-76
2022/07/20 04:15:44;;;;;;;;;48.00;38.25;;;;;24.80;58.09;101438.09;6279007;22;45398;-78
2022/07/20 04:18:10;;;;;;;;;44.25;37.25;;;;;24.81;57.58;101437.19;6251320;22;46235;-78
2022/07/20 04:20:35;;;;;;;;;45.75;37.00;;;;;24.81;57.85;101431.78;6251739;22;45123;-78
2022/07/20 04:23:01;;;;;;;;;48.00;39.75;;;;;24.77;58.38;101411.34;6279236;22;45206;-79
2022/07/20 04:25:26;;;;;;;;;43.75;38.00;;;;;24.78;58.08;101429.25;6278852;22;45225;-79
2022/07/20 04:27:52;;;;;;;;;45.75;36.50;;;;;24.77;57.27;101424.81;6251569;22;45414;-78
2022/07/20 04:30:17;;;;;;;;;37.25;32.25;;;;;24.78;56.90;101418.47;6279335;22;45183;-79
2022/07/20 04:32:43;;;;;;;;;34.50;32.25;;;;;24.73;56.28;101384.66;6278896;22;45261;-79
2022/07/20 04:35:10;;;;;;;;;36.75;31.50;;;;;24.74;56.29;101373.81;6251176;22;47723;-78
2022/07/20 04:37:36;;;;;;;;;36.50;33.00;;;;;24.72;56.01;101361.38;6278870;22;45287;-79
2022/07/20 04:40:03;;;;;;;;;30.25;28.00;;;;;24.70;55.41;101352.50;6251257;22;45217;-79
2022/07/20 04:42:29;;;;;;;;;33.00;30.75;;;;;24.67;55.92;101345.44;6251134;22;45499;-79
2022/07/20 04:44:54;;;;;;;;;30.50;28.75;;;;;24.64;55.70;101324.06;6251362;22;47271;-78
2022/07/20 04:47:19;;;;;;;;;34.75;30.50;;;;;24.61;55.29;101326.94;6279669;22;45129;-79
2022/07/20 04:49:45;;;;;;;;;32.75;28.25;;;;;24.60;55.68;101354.81;6279540;22;45956;-79
2022/07/20 04:52:10;;;;;;;;;28.50;27.00;;;;;24.62;55.77;101355.63;6278762;22;45165;-79
2022/07/20 04:54:36;;;;;;;;;29.25;27.25;;;;;24.64;55.53;101362.66;6278634;22;46287;-79
2022/07/20 04:57:01;;;;;;;;;30.00;25.25;;;;;24.58;54.98;101379.13;6278505;22;45168;-78
2022/07/20 04:59:27;;;;;;;;;29.25;26.75;;;;;24.57;54.70;101388.16;6251535;22;45429;-79
2022/07/20 05:01:53;;;;;;;;;36.75;34.50;;;;;24.57;54.27;101409.69;6278863;22;45570;-78
2022/07/20 05:04:18;;;;;;;;;29.75;29.00;;;;;24.56;54.36;101437.56;6278805;22;45388;-78
2022/07/20 05:06:46;;;;;;;;;31.75;29.50;;;;;24.49;54.81;101446.91;6278931;22;45303;-79
2022/07/20 05:09:12;;;;;;;;;38.25;31.25;;;;;24.48;54.94;101430.81;6250797;22;45249;-81
2022/07/20 05:11:40;;;;;;;;;31.00;29.00;;;;;24.51;55.50;101442.34;6251495;22;45449;-80
2022/07/20 05:14:06;;;;;;;;;25.25;23.75;;;;;24.42;54.74;101422.06;6278867;22;45276;-82
2022/07/20 05:16:31;;;;;;;;;27.00;27.00;;;;;24.41;55.45;101425.72;6278884;22;45223;-81
2022/07/20 05:18:59;;;;;;;;;31.50;26.50;;;;;24.36;55.07;101419.72;6251009;22;45407;-81
2022/07/20 05:21:24;;;;;;;;;27.25;24.50;;;;;24.32;55.36;101425.31;6279368;22;45431;-82
2022/07/20 05:23:50;;;;;;;;;23.25;22.00;;;;;24.27;54.95;101427.34;6278487;22;46185;-81
2022/07/20 05:26:19;;;;;;;;;28.50;26.00;;;;;24.23;55.05;101426.66;6251498;22;45384;-82
2022/07/20 05:28:45;;;;;;;;;23.50;22.25;;;;;24.27;55.33;101417.50;6279066;22;45228;-82
2022/07/20 05:31:13;;;;;;;;;25.75;24.75;;;;;24.27;55.23;101397.75;6279243;22;45489;-81
2022/07/20 05:33:39;;;;;;;;;28.75;25.75;;;;;24.20;55.44;101346.94;6279549;22;45444;-82
2022/07/20 05:36:05;;;;;;;;;24.25;23.50;;;;;24.23;55.62;101347.75;6280189;22;45311;-82
2022/07/20 05:38:30;;;;;;;;;27.50;25.25;;;;;24.20;55.58;101314.66;6251472;22;45299;-82
2022/07/20 05:40:56;;;;;;;;;26.75;23.50;;;;;24.18;55.53;101319.25;6279268;22;45303;-82
2022/07/20 05:43:22;;;;;;;;;25.50;23.25;;;;;24.05;56.03;101344.16;6250684;22;46440;-83
2022/07/20 05:45:47;;;;;;;;;30.25;29.50;;;;;23.98;55.64;101359.75;6279359;22;45697;-82
2022/07/20 05:48:14;;;;;;;;;26.00;25.75;;;;;24.02;56.51;101390.06;6251532;22;45257;-81
2022/07/20 05:50:40;;;;;;;;;27.00;25.75;;;;;24.01;56.43;101396.41;6279058;22;45424;-81
2022/07/20 05:53:07;;;;;;;;;23.50;20.75;;;;;23.98;56.09;101397.41;6278102;22;45242;-81
2022/07/20 05:55:34;;;;;;;;;24.50;24.50;;;;;23.97;56.04;101398.34;6250367;22;45455;-80
2022/07/20 05:57:59;;;;;;;;;26.50;26.50;;;;;23.94;56.29;101396.69;6250827;22;45235;-81
2022/07/20 06:00:24;;;;;;;;;28.25;27.00;;;;;23.89;55.94;101387.97;6250853;22;45280;-81
2022/07/20 06:02:50;;;;;;;;;39.25;34.25;;;;;23.91;56.29;101412.97;6251064;22;46938;-81
2022/07/20 06:05:17;;;;;;;;;28.50;26.50;;;;;23.88;55.97;101401.50;6250783;22;45261;-81
2022/07/20 06:07:43;;;;;;;;;26.00;22.50;;;;;23.80;55.67;101391.13;6278333;22;45161;-81
2022/07/20 06:10:08;;;;;;;;;26.00;24.00;;;;;23.82;55.59;101408.06;6278306;22;45264;-81
2022/07/20 06:12:35;;;;;;;;;32.50;30.00;;;;;23.82;55.67;101412.53;6250515;22;46292;-81
2022/07/20 06:15:00;;;;;;;;;28.75;25.00;;;;;23.87;55.84;101414.09;6250843;22;45129;-82
2022/07/20 06:17:35;;;;;;;;;26.00;26.00;;;;;23.90;56.08;101396.94;6278582;22;45220;-82
2022/07/20 06:20:20;;;;;;;;;28.25;25.25;;;;;23.94;55.74;101393.97;6251106;22;45799;-82
2022/07/20 06:22:45;;;;;;;;;29.75;24.75;;;;;23.98;55.83;101397.41;6250763;22;47072;-83
2022/07/20 06:25:13;;;;;;;;;26.25;22.50;;;;;24.02;55.65;101419.66;6279077;22;45102;-81
2022/07/20 06:27:39;;;;;;;;;24.50;21.75;;;;;24.07;55.78;101433.75;6251028;22;45525;-82
2022/07/20 06:30:06;;;;;;;;;28.75;26.25;;;;;24.10;55.95;101457.81;6250243;22;45422;-81
2022/07/20 06:32:33;;;;;;;;;23.25;21.00;;;;;24.03;54.77;101470.69;6277298;22;45204;-80
2022/07/20 06:35:01;;;;;;;;;26.50;23.00;;;;;23.88;54.91;101466.06;6249114;22;45458;-79
2022/07/20 06:37:26;;;;;;;;;26.50;23.75;;;;;23.86;55.44;101479.56;6249904;22;45275;-83
2022/07/20 06:39:52;;;;;;;;;21.00;20.75;;;;;23.82;55.32;101480.66;6277858;22;45557;-83
2022/07/20 06:42:17;;;;;;;;;31.25;25.75;;;;;23.80;55.82;101473.63;6250523;22;47118;-83
2022/07/20 06:44:46;;;;;;;;;26.25;25.00;;;;;23.75;55.41;101463.06;6250606;22;45845;-84
2022/07/20 06:47:11;;;;;;;;;22.75;21.00;;;;;23.68;55.84;101457.09;6250742;22;45228;-83
2022/07/20 06:49:37;;;;;;;;;21.25;21.25;;;;;23.63;56.00;101448.38;6278103;22;45398;-83
2022/07/20 06:52:03;;;;;;;;;24.50;22.50;;;;;23.66;56.16;101442.84;6249282;22;46864;-84
2022/07/20 06:54:29;;;;;;;;;27.00;25.25;;;;;23.61;56.52;101447.56;6278166;22;45228;-84
2022/07/20 06:56:57;;;;;;;;;24.25;21.75;;;;;23.53;57.09;101447.91;6251679;22;45189;-84
2022/07/20 06:59:25;;;;;;;;;28.75;27.25;;;;;23.46;56.74;101450.94;6251899;22;45446;-81
2022/07/20 07:01:53;;;;;;;;;21.25;20.00;;;;;23.44;56.82;101444.75;6278499;22;45388;-81
2022/07/20 07:04:19;;;;;;;;;22.25;22.00;;;;;23.39;57.16;101436.94;6264020;22;45982;-93
2022/07/20 07:06:50;;;;;;;;;25.25;24.75;;;;;23.37;56.56;101432.56;6232773;22;45245;-91
2022/07/20 07:09:16;;;;;;;;;27.75;23.25;;;;;23.37;56.28;101446.88;6265397;22;44713;-92
2022/07/20 07:11:41;;;;;;;;;22.25;21.75;;;;;23.32;56.43;101454.28;6254630;22;45342;-82
2022/07/20 07:14:07;;;;;;;;;23.25;23.25;;;;;23.37;56.54;101467.50;6252780;22;45329;-82
2022/07/20 07:16:32;;;;;;;;;22.50;20.00;;;;;23.32;56.56;101454.28;6253616;22;45755;-84
2022/07/20 07:18:58;;;;;;;;;27.75;26.00;;;;;23.31;56.65;101456.09;6250121;22;45578;-84
2022/07/20 07:21:23;;;;;;;;;22.50;20.75;;;;;23.23;56.94;101465.44;6249736;22;47942;-82
2022/07/20 07:23:49;;;;;;;;;21.50;20.00;;;;;23.23;56.48;101490.50;6251952;22;45091;-83
2022/07/20 07:26:19;;;;;;;;;24.25;22.50;;;;;23.16;56.45;101489.03;6250453;22;45252;-83
2022/07/20 07:28:45;;;;;;;;;27.75;26.75;;;;;23.08;56.78;101469.69;6277906;22;45465;-87
2022/07/20 07:31:11;;;;;;;;;27.50;25.00;;;;;23.02;56.67;101453.84;6249745;22;47107;-85
2022/07/20 07:33:37;;;;;;;;;31.50;29.00;;;;;23.04;57.59;101457.31;6249260;22;45299;-85
2022/07/20 07:36:03;;;;;;;;;21.75;19.75;;;;;23.10;57.76;101465.13;6249921;22;45209;-82
2022/07/20 07:38:28;;;;;;;;;22.75;21.00;;;;;23.21;57.74;101480.75;6250236;22;45208;-80
2022/07/20 07:40:53;;;;;;;;;20.50;20.50;;;;;23.31;57.57;101500.91;6277188;22;45189;-84
2022/07/20 07:43:22;;;;;;;;;17.50;17.50;;;;;23.27;57.27;101515.41;6251156;22;45729;-84
2022/07/20 07:45:47;;;;;;;;;31.75;27.50;;;;;23.24;56.95;101528.97;6251563;22;45410;-86
2022/07/20 07:48:12;;;;;;;;;23.75;23.50;;;;;23.14;57.76;101527.63;6279078;22;45338;-85
2022/07/20 07:50:39;;;;;;;;;26.50;25.00;;;;;23.02;57.73;101523.69;6253230;22;46906;-86
2022/07/20 07:53:07;;;;;;;;;29.50;26.00;;;;;23.03;58.27;101534.34;6279205;22;45300;-86
2022/07/20 07:55:36;;;;;;;;;34.25;27.50;;;;;22.97;58.68;101528.38;6251265;22;45193;-84
2022/07/20 07:58:02;;;;;;;;;22.75;21.75;;;;;22.96;58.50;101532.88;6278453;22;45386;-84
2022/07/20 08:00:28;;;;;;;;;28.25;26.50;;;;;22.90;58.39;101522.34;6278967;22;45311;-84
2022/07/20 08:02:54;;;;;;;;;25.25;25.00;;;;;22.88;58.88;101533.16;6253079;22;45336;-84
2022/07/20 08:05:20;;;;;;;;;27.25;24.25;;;;;22.96;59.11;101522.13;6257797;22;45401;-85
2022/07/20 08:07:45;;;;;;;;;19.00;19.00;;;;;23.06;59.15;101520.78;6281265;22;45350;-84
2022/07/20 08:10:11;;;;;;;;;18.50;17.25;;;;;23.10;58.88;101508.09;6252419;22;47921;-84
2022/07/20 08:12:37;;;;;;;;;24.50;24.50;;;;;23.33;58.59;101518.72;6253714;22;45743;-83
2022/07/20 08:15:04;;;;;;;;;21.75;21.25;;;;;23.43;58.70;101529.91;6262649;22;45274;-90
2022/07/20 08:17:31;;;;;;;;;27.25;25.25;;;;;23.52;58.57;101534.88;6269125;22;44795;-93
2022/07/20 08:19:59;;;;;;;;;21.50;21.50;;;;;23.53;57.62;101528.56;6292865;22;45567;-88
2022/07/20 08:22:25;;;;;;;;;23.00;22.50;;;;;23.55;57.61;101550.00;6257551;22;45249;-87
2022/07/20 08:24:50;;;;;;;;;20.50;20.50;;;;;23.50;57.34;101541.28;6281140;22;45463;-83
2022/07/20 08:27:16;;;;;;;;;27.25;23.25;;;;;23.53;57.12;101558.13;6251450;22;45353;-83
2022/07/20 08:30:02;;;;;;;;;;;;;;;;;;;;;
2022/07/20 08:32:37;;;;;;;;;22.25;21.75;;;;;23.60;56.76;101547.94;6284403;22;72801;-90
2022/07/20 08:35:04;;;;;;;;;21.00;20.00;;;;;23.51;57.02;101524.19;6275894;22;45108;-76
2022/07/20 08:37:30;;;;;;;;;19.75;19.50;;;;;23.62;57.43;101532.63;6274616;22;45228;-75
2022/07/20 08:39:55;;;;;;;;;19.50;19.50;;;;;23.70;57.20;101532.28;6275037;22;45345;-76
2022/07/20 08:42:22;;;;;;;;;24.25;22.00;;;;;23.76;56.93;101543.69;6276516;22;45361;-76
2022/07/20 08:44:53;;;;;;;;;16.75;16.75;;;;;23.81;56.63;101537.19;6276115;22;45617;-81
2022/07/20 08:47:39;;;;;;;;;;;;;;;;;;;;;
2022/07/20 08:50:22;;;;;;;;;;;;;;;;;;;;;
2022/07/20 08:52:58;;;;;;;;;;;;;;;;;;;;;
2022/07/20 08:55:27;;;;;;;;;16.75;16.00;;;;;23.38;55.94;101544.50;6276608;22;68823;-78
2022/07/20 08:57:53;;;;;;;;;15.50;14.75;;;;;23.27;56.36;101551.22;6278104;22;45406;-78
2022/07/20 09:00:18;;;;;;;;;11.50;11.50;;;;;23.21;56.63;101547.94;6250768;22;47092;-78
2022/07/20 09:02:50;;;;;;;;;14.25;12.75;;;;;23.27;56.92;101553.91;6250227;22;45373;-78
2022/07/20 09:05:16;;;;;;;;;18.25;14.00;;;;;23.27;57.31;101543.16;6249601;22;45357;-78
2022/07/20 09:07:47;;;;;;;;;13.00;13.00;;;;;23.41;56.88;101539.84;6277054;22;45181;-78
2022/07/20 09:10:18;;;;;;;;;12.50;12.25;;;;;23.58;56.84;101539.09;6246996;22;47574;-77
2022/07/20 09:12:50;;;;;;;;;13.50;12.50;;;;;23.68;56.33;101548.50;6249684;22;45312;-81
2022/07/20 09:15:32;;;;;;;;;9.75;9.75;;;;;23.65;55.65;101551.31;6278350;22;45299;-84
2022/07/20 09:18:12;;;;;;;;;13.00;11.75;;;;;23.76;55.92;101542.78;6252915;22;45459;-87
2022/07/20 09:20:50;;;;;;;;;12.25;11.50;;;;;23.78;56.15;101519.38;6249921;22;46934;-83
2022/07/20 09:23:25;;;;;;;;;14.00;14.00;;;;;23.90;55.92;101526.03;6252278;22;45346;-90
2022/07/20 09:26:03;;;;;;;;;14.75;13.50;;;;;24.10;55.86;101536.69;6254273;22;45382;-88
2022/07/20 09:28:49;;;;;;;;;9.25;8.00;;;;;24.19;54.62;101538.97;6250107;22;45857;-84
2022/07/20 09:31:27;;;;;;;;;12.25;11.00;;;;;24.24;54.69;101538.72;6250826;22;48020;-86
2022/07/20 09:33:57;;;;;;;;;11.50;10.50;;;;;24.27;54.77;101543.97;6250336;22;45506;-83
2022/07/20 09:36:27;;;;;;;;;7.00;6.75;;;;;24.31;54.56;101539.31;6252283;22;45255;-84
2022/07/20 09:39:04;;;;;;;;;7.00;7.00;;;;;24.30;54.23;101543.81;6280173;22;45406;-88
2022/07/20 09:41:34;;;;;;;;;12.25;11.00;;;;;24.26;54.19;101536.84;6252291;22;47137;-86
2022/07/20 09:44:01;;;;;;;;;6.75;5.50;;;;;24.17;53.90;101537.28;6252175;22;45355;-79
2022/07/20 09:46:32;;;;;;;;;8.00;8.00;;;;;24.02;54.12;101533.50;6278578;22;45284;-80
2022/07/20 09:49:01;;;;;;;;;10.00;10.00;;;;;23.97;54.42;101549.84;6253105;22;45270;-85
2022/07/20 09:51:46;;;;;;;;;8.75;8.75;;;;;23.92;54.68;101559.97;6254307;22;48511;-92
2022/07/20 09:54:17;;;;;;;;;8.00;7.25;;;;;23.81;54.77;101554.19;6277954;22;45486;-82
2022/07/20 09:56:57;;;;;;;;;6.25;6.25;;;;;23.77;54.54;101558.84;6251209;22;45195;-90
2022/07/20 09:59:55;;;;;;;;;5.75;5.50;;;;;23.68;54.68;101567.31;6250705;22;45478;-89
2022/07/20 10:02:26;;;;;;;;;6.75;6.75;;;;;23.67;55.04;101553.94;6277221;22;47196;-87
2022/07/20 10:05:02;;;;;;;;;4.75;4.75;;;;;23.62;55.17;101550.59;6253534;22;45536;-90
2022/07/20 10:07:32;;;;;;;;;4.75;4.00;;;;;23.63;55.23;101553.22;6253627;22;45404;-91
2022/07/20 10:09:58;;;;;;;;;8.25;6.25;;;;;23.67;55.50;101559.31;6251010;22;45539;-88
2022/07/20 10:12:23;;;;;;;;;10.00;10.00;;;;;23.70;55.17;101553.78;6250439;22;47376;-86
2022/07/20 10:14:51;;;;;;;;;9.00;6.00;;;;;23.73;55.50;101549.16;6251388;22;45194;-86
2022/07/20 10:17:17;;;;;;;;;8.25;7.75;;;;;23.81;55.17;101556.88;6278823;22;45205;-84
2022/07/20 10:19:46;;;;;;;;;7.25;7.25;;;;;23.93;55.43;101561.72;6250437;22;45422;-86
2022/07/20 10:22:12;;;;;;;;;9.00;6.25;;;;;24.03;55.43;101550.50;6276735;22;45421;-84
2022/07/20 10:24:39;;;;;;;;;7.50;4.75;;;;;24.15;54.78;101564.25;6250148;22;45585;-85
2022/07/20 10:27:20;;;;;;;;;;;;;;;;;;;;;
2022/07/20 10:29:55;;;;;;;;;9.00;8.00;;;;;24.29;54.79;101568.09;6277978;22;71409;-85
2022/07/20 10:32:50;;;;;;;;;6.50;6.50;;;;;24.36;54.16;101554.28;6250117;22;47035;-85
2022/07/20 10:39:18;;;;;;;;;8.25;7.25;;;;;24.42;54.30;101553.13;6243783;22;45357;-83
2022/07/20 10:42:42;;;;;;;;;9.00;8.75;;;;;24.48;54.32;101563.59;6276829;22;45299;-84
2022/07/20 10:45:11;;;;;;;;;9.50;8.75;;;;;24.58;54.40;101569.41;6205135;22;47011;-83
2022/07/20 10:47:57;;;;;;;;;10.50;8.00;;;;;24.56;54.04;101564.09;6278259;22;45287;-82
2022/07/20 10:50:35;;;;;;;;;8.00;7.00;;;;;24.52;54.17;101567.03;6250102;22;45304;-81
2022/07/20 10:53:10;;;;;;;;;7.75;7.25;;;;;24.48;53.45;101579.75;6250109;22;45469;-82
2022/07/20 10:55:38;;;;;;;;;6.00;6.00;;;;;24.36;53.54;101575.81;6250476;22;47782;-82
2022/07/20 10:58:19;;;;;;;;;5.25;5.25;;;;;24.18;53.36;101568.63;6250700;22;45411;-82
2022/07/20 11:00:47;;;;;;;;;6.50;4.50;;;;;24.12;53.64;101572.47;6277876;22;45173;-82
2022/07/20 11:03:16;;;;;;;;;7.25;7.25;;;;;24.04;53.81;101571.97;6277406;22;45452;-82
2022/07/20 11:05:44;;;;;;;;;7.00;6.00;;;;;24.04;54.80;101580.03;6249306;22;46968;-82
2022/07/20 11:08:11;;;;;;;;;7.00;7.00;;;;;24.11;54.62;101576.13;6248986;22;45126;-83
2022/07/20 11:10:38;;;;;;;;;7.75;7.75;;;;;24.17;54.82;101577.66;6250678;22;45267;-81
2022/07/20 11:13:11;;;;;;;;;9.25;8.25;;;;;24.25;54.60;101582.69;6249707;22;45495;-82
2022/07/20 11:15:45;;;;;;;;;7.50;7.50;;;;;24.33;55.04;101572.41;6248658;22;47030;-82
2022/07/20 11:18:33;;;;;;;;;11.00;8.25;;;;;24.42;54.96;101580.91;6250182;22;45225;-82
2022/07/20 11:21:05;;;;;;;;;8.75;7.00;;;;;24.51;53.98;101576.03;6250348;22;45448;-82
2022/07/20 11:23:51;;;;;;;;;6.50;6.50;;;;;24.51;53.73;101563.47;6250487;22;45261;-82
2022/07/20 11:26:21;;;;;;;;;11.25;9.50;;;;;24.63;53.95;101570.94;6276699;22;45596;-82
2022/07/20 11:28:52;;;;;;;;;8.75;7.00;;;;;24.66;53.51;101572.59;6277785;22;45510;-82
2022/07/20 11:31:22;;;;;;;;;10.00;8.75;;;;;24.58;53.62;101550.56;6249716;22;45402;-81